Time;durP1;ratioP1;P1;durP2;ratioP2;P2;SDS_P1;SDS_P2;PMS_P1;PMS_P2;Temp;Humidity;BMP_temperature;BMP_pressure;BME280_temperature;BME280_humidity;BME280_pressure;Samples;Min_cycle;Max_cycle;Signal;HPM_P1;HPM_P2
2022/01/09 10:13:06;;;;;;;13.50;12.30;;;5.30;99.90;;;;;;5067368;27;20571;-71
2022/01/09 10:15:45;;;;;;;13.80;12.77;;;7.30;99.90;;;;;;5066596;28;20443;-72
2022/01/09 10:18:12;;;;;;;12.27;11.63;;;7.30;99.90;;;;;;5066387;28;20548;-71
2022/01/09 10:20:38;;;;;;;13.57;11.67;;;7.30;99.90;;;;;;5066501;28;20960;-70
2022/01/09 10:23:05;;;;;;;15.53;13.33;;;7.20;99.90;;;;;;5066694;28;20450;-73
2022/01/09 10:25:36;;;;;;;13.03;12.13;;;7.00;99.90;;;;;;5066248;28;20447;-72
2022/01/09 10:28:07;;;;;;;13.30;12.63;;;6.80;99.90;;;;;;5066333;28;20459;-71
2022/01/09 10:30:38;;;;;;;14.20;13.50;;;6.70;99.90;;;;;;5066125;28;20517;-72
2022/01/09 10:33:07;;;;;;;15.10;14.10;;;6.30;99.90;;;;;;5066160;28;20453;-71
2022/01/09 10:35:35;;;;;;;13.97;13.47;;;6.20;99.90;;;;;;5066176;28;20451;-72
2022/01/09 10:38:12;;;;;;;14.80;14.00;;;6.20;99.90;;;;;;5065999;28;20451;-73
2022/01/09 10:40:41;;;;;;;15.30;14.40;;;6.50;99.90;;;;;;5066158;28;20970;-73
2022/01/09 10:43:11;;;;;;;15.23;14.20;;;6.70;99.90;;;;;;5066273;28;20447;-73
2022/01/09 10:45:40;;;;;;;14.37;13.30;;;7.10;99.90;;;;;;5066007;28;20451;-74
2022/01/09 10:48:11;;;;;;;14.23;13.10;;;7.80;99.90;;;;;;5066123;28;20458;-74
2022/01/09 10:50:41;;;;;;;14.00;13.27;;;8.20;99.90;;;;;;5066031;28;20475;-74
2022/01/09 10:53:21;;;;;;;14.63;13.47;;;8.00;99.90;;;;;;5065962;28;20450;-73
2022/01/09 10:55:50;;;;;;;16.60;15.70;;;7.40;99.90;;;;;;5065710;28;20447;-73
2022/01/09 10:58:21;;;;;;;18.23;16.97;;;7.00;99.90;;;;;;5065531;28;20447;-71
2022/01/09 11:00:48;;;;;;;18.20;17.40;;;6.90;99.90;;;;;;5065542;28;20444;-74
2022/01/09 11:03:15;;;;;;;19.47;18.37;;;6.70;99.90;;;;;;5065239;28;20627;-73
2022/01/09 11:05:42;;;;;;;17.60;16.80;;;6.70;99.90;;;;;;5065277;28;20454;-74
2022/01/09 11:08:09;;;;;;;18.07;16.97;;;6.50;99.90;;;;;;5065516;28;20458;-73
2022/01/09 11:10:37;;;;;;;17.47;16.37;;;6.50;99.90;;;;;;5065200;28;20462;-73
2022/01/09 11:13:04;;;;;;;16.27;15.47;;;6.60;99.90;;;;;;5056248;28;20485;-73
2022/01/09 11:15:40;;;;;;;16.60;15.80;;;7.20;99.90;;;;;;5051969;28;20794;-74
2022/01/09 11:18:09;;;;;;;16.10;15.20;;;8.20;99.90;;;;;;5052296;28;20545;-73
2022/01/09 11:20:36;;;;;;;13.60;13.00;;;9.80;99.90;;;;;;5052339;28;20459;-71
2022/01/09 11:23:05;;;;;;;12.57;12.07;;;11.30;99.90;;;;;;5051964;28;20519;-73
2022/01/09 11:25:37;;;;;;;12.80;12.20;;;12.90;99.90;;;;;;5051842;28;20452;-74
2022/01/09 11:28:12;;;;;;;12.33;11.53;;;13.30;99.90;;;;;;5051975;28;20452;-73
2022/01/09 11:31:02;;;;;;;12.17;11.57;;;12.40;99.90;;;;;;5052156;28;20585;-73
2022/01/09 11:33:47;;;;;;;11.80;10.90;;;11.40;99.90;;;;;;5051866;28;20810;-74
2022/01/09 11:36:19;;;;;;;12.70;11.80;;;10.60;99.90;;;;;;5051798;28;20443;-73
2022/01/09 11:38:53;;;;;;;11.63;10.93;;;9.80;99.90;;;;;;5051492;28;20440;-73
2022/01/09 11:41:23;;;;;;;11.53;10.70;;;9.50;99.90;;;;;;5051745;28;20956;-72
2022/01/09 11:43:55;;;;;;;11.70;10.90;;;8.80;99.90;;;;;;5051776;28;20452;-74
2022/01/09 11:46:25;;;;;;;11.50;10.83;;;8.70;99.90;;;;;;5051633;28;20451;-73
2022/01/09 11:49:06;;;;;;;10.00;9.43;;;9.10;99.90;;;;;;5045075;28;20468;-73
2022/01/09 11:51:35;;;;;;;9.70;9.20;;;10.10;99.90;;;;;;5031658;28;20494;-73
2022/01/09 11:54:05;;;;;;;10.60;10.00;;;11.30;99.90;;;;;;5031608;28;20488;-73
2022/01/09 11:56:53;;;;;;;12.37;11.23;;;12.80;99.90;;;;;;5031414;28;20456;-72
2022/01/09 11:59:23;;;;;;;11.43;10.87;;;14.10;97.60;;;;;;5031539;28;20958;-72
2022/01/09 12:01:53;;;;;;;11.10;10.60;;;14.40;94.20;;;;;;5031543;28;20449;-72
2022/01/09 12:04:55;;;;;;;12.33;11.53;;;13.80;96.80;;;;;;5031284;28;20469;-73
2022/01/09 12:08:01;;;;;;;12.60;11.97;;;14.60;97.10;;;;;;5031401;28;20448;-73
2022/01/09 12:10:30;;;;;;;11.77;11.07;;;15.40;92.90;;;;;;5031009;28;20444;-73
2022/01/09 12:12:57;;;;;;;11.50;10.97;;;14.30;93.90;;;;;;5031012;28;20496;-73
2022/01/09 12:15:36;;;;;;;11.53;10.87;;;13.00;96.70;;;;;;5029614;28;20476;-70
2022/01/09 12:18:07;;;;;;;10.13;9.53;;;12.60;97.00;;;;;;5030165;28;20452;-71
2022/01/09 12:20:40;;;;;;;10.20;9.50;;;11.70;99.50;;;;;;5029947;28;20457;-73
2022/01/09 12:23:07;;;;;;;10.00;9.47;;;12.20;98.60;;;;;;5030710;28;20453;-72
2022/01/09 12:25:53;;;;;;;9.97;9.03;;;11.80;98.40;;;;;;5029555;28;20544;-73
2022/01/09 12:28:43;;;;;;;9.50;9.10;;;11.00;99.90;;;;;;5030479;28;21057;-73
2022/01/09 12:31:25;;;;;;;10.07;9.47;;;10.60;99.90;;;;;;5030398;28;20483;-72
2022/01/09 12:33:54;;;;;;;10.50;9.90;;;10.90;99.90;;;;;;5030569;28;20453;-72
2022/01/09 12:36:27;;;;;;;10.53;10.13;;;11.70;99.90;;;;;;5030422;28;20730;-72
2022/01/09 12:38:59;;;;;;;10.60;9.80;;;12.00;98.80;;;;;;5030381;28;20449;-72
2022/01/09 12:41:28;;;;;;;9.13;8.60;;;11.00;99.00;;;;;;5030433;28;20555;-72
2022/01/09 12:44:01;;;;;;;9.60;9.03;;;10.80;99.90;;;;;;5030162;28;20455;-72
2022/01/09 12:46:29;;;;;;;10.93;9.87;;;10.30;99.90;;;;;;5030049;28;20449;-72
2022/01/09 12:48:59;;;;;;;9.70;9.30;;;9.90;99.90;;;;;;5029970;28;20445;-71
2022/01/09 12:51:27;;;;;;;10.13;9.47;;;10.20;99.90;;;;;;5029859;28;20492;-72
2022/01/09 12:53:55;;;;;;;9.70;9.30;;;10.40;99.90;;;;;;5030179;28;20457;-71
2022/01/09 12:56:25;;;;;;;10.23;9.63;;;10.40;99.90;;;;;;5030178;28;20452;-71
2022/01/09 12:58:53;;;;;;;10.03;9.23;;;10.30;99.90;;;;;;5029983;28;20462;-72
2022/01/09 13:01:22;;;;;;;10.23;9.70;;;10.10;99.90;;;;;;5030097;28;20444;-73
2022/01/09 13:03:51;;;;;;;10.43;9.93;;;9.80;99.90;;;;;;5029895;28;20469;-71
2022/01/09 13:06:28;;;;;;;10.70;10.20;;;9.50;99.90;;;;;;5029572;28;20453;-73
2022/01/09 13:08:56;;;;;;;11.13;10.40;;;9.00;99.90;;;;;;5029831;28;20456;-73
2022/01/09 13:11:26;;;;;;;10.50;10.00;;;9.00;99.90;;;;;;5029543;28;20503;-73
2022/01/09 13:13:55;;;;;;;9.77;9.00;;;9.00;99.90;;;;;;5029816;28;20449;-71
2022/01/09 13:16:27;;;;;;;9.93;9.53;;;8.80;99.90;;;;;;5029798;28;20449;-73
2022/01/09 13:18:55;;;;;;;10.63;9.90;;;8.50;99.90;;;;;;5029577;28;20453;-74
2022/01/09 13:21:25;;;;;;;9.60;9.10;;;8.60;99.90;;;;;;5029725;28;20497;-73
2022/01/09 13:23:58;;;;;;;11.27;10.53;;;8.30;99.90;;;;;;5029825;28;20812;-74
2022/01/09 13:26:26;;;;;;;10.23;9.53;;;8.20;99.90;;;;;;5029352;28;20467;-73
2022/01/09 13:28:54;;;;;;;10.93;10.17;;;8.20;99.90;;;;;;5029576;28;20797;-74
2022/01/09 13:31:22;;;;;;;9.57;9.27;;;8.00;99.90;;;;;;5029469;28;20476;-73
2022/01/09 13:33:55;;;;;;;10.60;9.80;;;7.50;99.90;;;;;;5029058;28;20820;-73
2022/01/09 13:36:43;;;;;;;11.53;10.90;;;7.20;99.90;;;;;;5029288;28;20457;-72
2022/01/09 13:39:15;;;;;;;11.03;10.33;;;7.00;99.90;;;;;;5029235;28;20455;-73
2022/01/09 13:41:44;;;;;;;11.50;10.63;;;7.00;99.90;;;;;;5029025;28;20458;-73
2022/01/09 13:44:12;;;;;;;10.20;9.70;;;6.90;99.90;;;;;;5028944;28;20828;-73
2022/01/09 13:46:40;;;;;;;10.90;10.30;;;6.90;99.90;;;;;;5029312;28;20452;-72
2022/01/09 13:49:15;;;;;;;9.83;9.10;;;7.00;99.90;;;;;;5029347;28;20463;-73
2022/01/09 13:51:49;;;;;;;9.70;9.20;;;7.00;99.90;;;;;;5028740;28;21032;-73
2022/01/09 13:54:19;;;;;;;12.10;11.23;;;7.10;99.90;;;;;;5028893;28;20451;-72
2022/01/09 13:57:00;;;;;;;10.20;9.70;;;7.10;99.90;;;;;;5029264;28;20527;-73
2022/01/09 13:59:35;;;;;;;9.87;9.33;;;7.10;99.90;;;;;;5028910;28;20899;-73
2022/01/09 14:02:02;;;;;;;10.10;9.60;;;7.20;99.90;;;;;;5028879;28;20449;-73
2022/01/09 14:04:29;;;;;;;10.27;9.87;;;7.10;99.90;;;;;;5028794;28;21021;-73
2022/01/09 14:06:59;;;;;;;9.47;9.13;;;7.10;99.90;;;;;;5028879;28;20828;-73
2022/01/09 14:09:27;;;;;;;10.87;10.17;;;7.10;99.90;;;;;;5028856;28;20456;-74
2022/01/09 14:12:03;;;;;;;10.30;9.90;;;7.00;99.90;;;;;;5028619;28;21002;-72
2022/01/09 14:14:35;;;;;;;10.60;10.20;;;6.80;99.90;;;;;;5028590;28;20656;-73
2022/01/09 14:17:02;;;;;;;10.17;9.63;;;6.80;99.90;;;;;;5028569;28;20607;-73
2022/01/09 14:19:45;;;;;;;10.63;10.07;;;6.80;99.90;;;;;;5028598;28;20450;-73
2022/01/09 14:22:13;;;;;;;10.00;9.60;;;6.80;99.90;;;;;;5028619;28;20484;-72
2022/01/09 14:25:00;;;;;;;10.67;9.90;;;6.70;99.90;;;;;;5028828;28;20449;-72
2022/01/09 14:27:28;;;;;;;10.40;9.90;;;6.90;99.90;;;;;;5028502;28;20474;-72
2022/01/09 14:29:55;;;;;;;10.10;9.40;;;7.00;99.90;;;;;;5028549;28;20459;-73
2022/01/09 14:32:22;;;;;;;10.77;8.90;;;7.10;99.90;;;;;;5028705;28;20489;-73
2022/01/09 14:34:50;;;;;;;10.87;10.10;;;7.30;99.90;;;;;;5028671;28;20458;-73
2022/01/09 14:37:18;;;;;;;10.00;9.50;;;7.40;99.90;;;;;;5028523;28;20513;-73
2022/01/09 14:39:45;;;;;;;11.27;10.53;;;7.40;99.90;;;;;;5028591;28;20448;-73
2022/01/09 14:42:12;;;;;;;10.40;9.70;;;7.40;99.90;;;;;;5028465;28;20445;-73
2022/01/09 14:44:39;;;;;;;10.60;10.10;;;7.50;99.90;;;;;;5028724;28;20460;-73
2022/01/09 14:47:06;;;;;;;10.43;9.83;;;7.40;99.90;;;;;;5028888;28;20460;-73
2022/01/09 14:49:33;;;;;;;10.53;10.13;;;7.50;99.90;;;;;;5032155;28;20464;-73
2022/01/09 14:52:00;;;;;;;10.00;9.60;;;7.40;99.90;;;;;;5032004;28;20488;-73
2022/01/09 14:54:28;;;;;;;10.50;9.93;;;7.50;99.90;;;;;;5031996;28;20455;-73
2022/01/09 14:56:54;;;;;;;10.73;10.23;;;7.50;99.90;;;;;;5032204;28;20455;-73
2022/01/09 14:59:21;;;;;;;11.73;10.80;;;7.40;99.90;;;;;;5032362;28;20459;-73
2022/01/09 15:01:48;;;;;;;11.17;10.57;;;7.30;99.90;;;;;;5031827;28;20456;-72
2022/01/09 15:04:15;;;;;;;10.27;9.77;;;7.20;99.90;;;;;;5031665;28;20498;-73
2022/01/09 15:06:42;;;;;;;10.83;10.43;;;7.20;99.90;;;;;;5031886;28;20456;-72
2022/01/09 15:09:09;;;;;;;10.93;10.60;;;7.30;99.90;;;;;;5032162;28;20459;-73
2022/01/09 15:11:37;;;;;;;10.70;10.30;;;7.20;99.90;;;;;;5031602;28;20487;-73
2022/01/09 15:14:03;;;;;;;10.97;10.50;;;7.20;99.90;;;;;;5031638;28;20445;-73
2022/01/09 15:16:30;;;;;;;11.00;10.60;;;7.10;99.90;;;;;;5031580;28;20444;-73
2022/01/09 15:18:57;;;;;;;11.00;10.40;;;6.90;99.90;;;;;;5031556;28;20452;-73
2022/01/09 15:21:24;;;;;;;12.30;11.57;;;6.90;99.90;;;;;;5031808;28;20464;-73
2022/01/09 15:23:51;;;;;;;13.93;13.30;;;6.50;99.90;;;;;;5031901;28;20452;-73
2022/01/09 15:26:18;;;;;;;15.77;14.83;;;6.20;99.90;;;;;;5031605;28;20842;-73
2022/01/09 15:28:46;;;;;;;16.90;16.30;;;6.00;99.90;;;;;;5031494;28;20451;-72
2022/01/09 15:31:13;;;;;;;18.83;17.60;;;5.70;99.90;;;;;;5031365;28;20453;-72
2022/01/09 15:33:40;;;;;;;20.50;19.70;;;5.60;99.90;;;;;;5031475;28;20490;-73
2022/01/09 15:36:07;;;;;;;22.10;21.20;;;5.40;99.90;;;;;;5031652;28;20445;-74
2022/01/09 15:38:33;;;;;;;23.43;22.43;;;5.10;99.90;;;;;;5031374;28;20454;-74
2022/01/09 15:41:00;;;;;;;24.00;23.10;;;5.00;99.90;;;;;;5031174;28;20445;-75
2022/01/09 15:43:27;;;;;;;23.97;23.07;;;4.80;99.90;;;;;;5031170;28;20450;-75
2022/01/09 15:45:55;;;;;;;24.63;23.63;;;4.60;99.90;;;;;;5031439;28;20461;-74
2022/01/09 15:48:23;;;;;;;25.00;24.00;;;4.50;99.90;;;;;;5031417;28;20459;-75
2022/01/09 15:50:50;;;;;;;26.17;24.47;;;4.40;99.90;;;;;;5031132;28;20559;-75
2022/01/09 15:53:16;;;;;;;25.50;24.30;;;4.30;99.90;;;;;;5030826;28;20489;-75
2022/01/09 15:55:43;;;;;;;24.50;23.40;;;4.30;99.90;;;;;;5030959;28;20460;-75
2022/01/09 15:58:10;;;;;;;23.67;22.57;;;4.20;99.90;;;;;;5030895;28;20453;-75
2022/01/09 16:00:37;;;;;;;24.93;23.97;;;4.20;99.90;;;;;;5031139;28;20487;-76
2022/01/09 16:03:05;;;;;;;24.47;23.47;;;4.20;99.90;;;;;;5030687;28;20469;-75
2022/01/09 16:05:32;;;;;;;24.40;23.00;;;4.20;99.90;;;;;;5030670;28;20476;-74
2022/01/09 16:07:59;;;;;;;24.53;23.53;;;4.20;99.90;;;;;;5030685;28;20475;-74
2022/01/09 16:10:26;;;;;;;24.80;23.50;;;4.20;99.90;;;;;;5030600;28;20452;-75
2022/01/09 16:12:52;;;;;;;23.63;22.40;;;4.30;99.90;;;;;;5030901;28;20534;-74
2022/01/09 16:15:19;;;;;;;24.00;22.97;;;4.20;99.90;;;;;;5030519;28;20452;-75
2022/01/09 16:17:46;;;;;;;22.73;21.43;;;4.30;99.90;;;;;;5030275;28;20460;-73
2022/01/09 16:20:14;;;;;;;22.90;22.00;;;4.20;99.90;;;;;;5030553;28;20448;-73
2022/01/09 16:22:41;;;;;;;22.07;20.83;;;4.20;99.90;;;;;;5030343;28;20475;-74
2022/01/09 16:25:09;;;;;;;22.13;21.07;;;4.20;99.90;;;;;;5030732;28;20452;-74
2022/01/09 16:27:36;;;;;;;23.57;22.00;;;4.20;99.90;;;;;;5030423;28;20808;-73
2022/01/09 16:30:06;;;;;;;21.90;20.90;;;4.20;99.90;;;;;;5030413;28;20452;-73
2022/01/09 16:32:33;;;;;;;22.77;21.77;;;4.10;99.90;;;;;;5030050;28;20592;-73
2022/01/09 16:34:59;;;;;;;22.67;21.67;;;4.10;99.90;;;;;;5030187;28;20455;-73
2022/01/09 16:37:27;;;;;;;24.40;23.10;;;4.10;99.90;;;;;;5030079;28;20468;-73
2022/01/09 16:39:54;;;;;;;22.60;21.70;;;4.20;99.90;;;;;;5030136;28;20543;-73
2022/01/09 16:42:21;;;;;;;21.93;20.97;;;4.30;99.90;;;;;;5030127;28;20469;-73
2022/01/09 16:44:48;;;;;;;22.23;21.33;;;4.30;99.90;;;;;;5029930;28;20457;-74
2022/01/09 16:47:15;;;;;;;22.07;20.83;;;4.30;99.90;;;;;;5029710;28;20992;-73
2022/01/09 16:49:42;;;;;;;22.00;21.03;;;4.40;99.90;;;;;;5029932;28;20460;-73
2022/01/09 16:52:08;;;;;;;20.97;20.00;;;4.40;99.90;;;;;;5030041;28;20452;-72
2022/01/09 16:54:36;;;;;;;21.00;20.20;;;4.40;99.90;;;;;;5030136;28;20465;-73
2022/01/09 16:57:03;;;;;;;21.63;20.73;;;4.40;99.90;;;;;;5029684;28;20966;-73
2022/01/09 16:59:30;;;;;;;21.60;20.50;;;4.40;99.90;;;;;;5029788;28;20462;-73
2022/01/09 17:01:57;;;;;;;21.50;20.40;;;4.50;99.90;;;;;;5029501;28;20453;-73
2022/01/09 17:04:23;;;;;;;19.93;19.23;;;4.50;99.90;;;;;;5029826;28;20991;-73
2022/01/09 17:06:51;;;;;;;21.87;20.97;;;4.60;99.90;;;;;;5029678;28;20453;-72
2022/01/09 17:09:17;;;;;;;20.80;19.90;;;4.60;99.90;;;;;;5029631;28;20485;-73
2022/01/09 17:11:46;;;;;;;21.47;20.43;;;4.60;99.90;;;;;;5028803;28;20476;-73
2022/01/09 17:14:13;;;;;;;21.87;20.83;;;4.60;99.90;;;;;;5029384;28;21007;-72
2022/01/09 17:16:39;;;;;;;21.60;20.60;;;4.70;99.90;;;;;;5029758;28;20453;-73
2022/01/09 17:19:06;;;;;;;23.07;21.80;;;4.60;99.90;;;;;;5029569;28;20449;-73
2022/01/09 17:21:33;;;;;;;22.30;21.07;;;4.60;99.90;;;;;;5029252;28;20472;-73
2022/01/09 17:23:59;;;;;;;21.20;20.13;;;4.60;99.90;;;;;;5029301;28;20550;-72
2022/01/09 17:26:26;;;;;;;21.10;20.20;;;4.60;99.90;;;;;;5029256;28;20452;-73
2022/01/09 17:28:54;;;;;;;23.70;22.57;;;4.50;99.90;;;;;;5029460;28;20457;-73
2022/01/09 17:31:21;;;;;;;22.77;21.67;;;4.40;99.90;;;;;;5029288;28;20454;-73
2022/01/09 17:33:47;;;;;;;22.40;21.40;;;4.20;99.90;;;;;;5029008;28;20507;-73
2022/01/09 17:36:17;;;;;;;22.17;21.07;;;4.10;99.90;;;;;;5029198;28;20445;-73
2022/01/09 17:38:44;;;;;;;21.90;20.90;;;3.90;99.90;;;;;;5029096;28;20456;-73
2022/01/09 17:41:11;;;;;;;22.70;21.50;;;3.70;99.90;;;;;;5029030;28;20460;-73
2022/01/09 17:43:38;;;;;;;23.30;22.10;;;3.60;99.90;;;;;;5029439;28;20802;-73
2022/01/09 17:46:06;;;;;;;22.20;21.20;;;3.60;99.90;;;;;;5029159;28;20450;-73
2022/01/09 17:48:34;;;;;;;21.20;20.10;;;3.60;99.90;;;;;;5029057;28;20448;-72
2022/01/09 17:51:01;;;;;;;21.73;20.83;;;3.60;99.90;;;;;;5028978;28;20464;-73
2022/01/09 17:53:28;;;;;;;21.50;20.40;;;3.60;99.90;;;;;;5028792;28;20488;-73
2022/01/09 17:55:57;;;;;;;22.37;21.37;;;3.60;99.90;;;;;;5029094;28;20924;-73
2022/01/09 17:58:24;;;;;;;22.73;21.63;;;3.70;99.90;;;;;;5029070;28;20457;-73
